Time;durP1;ratioP1;P1;durP2;ratioP2;P2;SDS_P1;SDS_P2;PMS_P1;PMS_P2;Temp;Humidity;BMP_temperature;BMP_pressure;BME280_temperature;BME280_humidity;BME280_pressure;Samples;Min_cycle;Max_cycle;Signal;HPM_P1;HPM_P2
2024/01/21 00:00:45;;;;;;;15.93;11.55;;;0.20;99.90;;;;;;7373072;19;20068;-72
2024/01/21 00:03:12;;;;;;;15.77;12.15;;;0.20;99.90;;;;;;7373496;19;20018;-65
2024/01/21 00:05:39;;;;;;;19.30;12.52;;;0.20;99.90;;;;;;7371979;19;20069;-73
2024/01/21 00:08:07;;;;;;;17.73;12.20;;;0.20;99.90;;;;;;7371722;19;20039;-72
2024/01/21 00:10:34;;;;;;;15.52;12.00;;;0.20;99.90;;;;;;7372186;19;20945;-73
2024/01/21 00:13:00;;;;;;;16.70;10.88;;;0.20;99.90;;;;;;7373871;19;20555;-65
2024/01/21 00:15:28;;;;;;;15.77;11.60;;;0.20;99.90;;;;;;7374490;19;20084;-72
2024/01/21 00:17:55;;;;;;;18.10;11.60;;;0.20;99.90;;;;;;7370184;19;20086;-64
2024/01/21 00:20:25;;;;;;;16.17;11.50;;;0.20;99.90;;;;;;7370523;19;20015;-64
2024/01/21 00:22:52;;;;;;;15.25;10.23;;;0.20;99.90;;;;;;7374220;19;20078;-65
2024/01/21 00:25:19;;;;;;;15.63;11.20;;;0.20;99.90;;;;;;7372441;19;20832;-65
2024/01/21 00:27:46;;;;;;;17.48;11.43;;;0.20;99.90;;;;;;7372073;19;20067;-64
2024/01/21 00:30:13;;;;;;;16.48;11.35;;;0.30;99.90;;;;;;7371781;19;20014;-65
2024/01/21 00:32:40;;;;;;;15.43;10.63;;;0.30;99.90;;;;;;7372864;19;20062;-65
2024/01/21 00:35:08;;;;;;;14.15;9.85;;;0.30;99.90;;;;;;7370885;19;20098;-65
2024/01/21 00:37:34;;;;;;;17.25;12.30;;;0.30;99.90;;;;;;7374359;19;20090;-65
2024/01/21 00:40:01;;;;;;;15.23;11.05;;;0.30;99.90;;;;;;7372848;19;20010;-72
2024/01/21 00:42:28;;;;;;;21.98;11.30;;;0.40;99.90;;;;;;7370497;19;20018;-65
2024/01/21 00:44:55;;;;;;;13.35;9.95;;;0.30;99.90;;;;;;7372115;19;21106;-65
2024/01/21 00:47:22;;;;;;;17.13;11.85;;;0.30;99.90;;;;;;7371305;19;20022;-72
2024/01/21 00:49:49;;;;;;;17.58;11.65;;;0.30;99.90;;;;;;7378119;19;20022;-72
2024/01/21 00:52:15;;;;;;;16.30;11.45;;;0.30;99.90;;;;;;7378190;19;20022;-72
2024/01/21 00:54:42;;;;;;;16.27;11.00;;;0.30;99.90;;;;;;7377392;19;20554;-65
2024/01/21 00:57:08;;;;;;;16.15;10.75;;;0.30;99.90;;;;;;7375257;19;20024;-65
2024/01/21 00:59:34;;;;;;;18.23;10.52;;;0.30;99.90;;;;;;7378679;19;20861;-64
2024/01/21 01:02:00;;;;;;;15.45;10.23;;;0.30;99.90;;;;;;7374538;19;20342;-72
2024/01/21 01:04:27;;;;;;;16.40;10.00;;;0.30;99.90;;;;;;7374042;19;20018;-71
2024/01/21 01:06:53;;;;;;;14.13;10.23;;;0.30;99.90;;;;;;7376049;19;20019;-72
2024/01/21 01:09:19;;;;;;;15.45;9.98;;;0.30;99.90;;;;;;7377184;19;20031;-64
2024/01/21 01:11:45;;;;;;;15.55;10.52;;;0.30;99.90;;;;;;7375701;19;20029;-64
2024/01/21 01:14:14;;;;;;;18.48;10.07;;;0.30;99.90;;;;;;7374390;19;20021;-72
2024/01/21 01:16:41;;;;;;;12.93;8.77;;;0.30;99.90;;;;;;7378279;19;20023;-72
2024/01/21 01:19:07;;;;;;;15.75;9.63;;;0.40;99.90;;;;;;7376572;19;20024;-72
2024/01/21 01:21:34;;;;;;;17.42;9.85;;;0.30;99.90;;;;;;7376736;19;20018;-72
2024/01/21 01:24:00;;;;;;;15.95;9.15;;;0.30;99.90;;;;;;7372807;19;20026;-72
2024/01/21 01:26:27;;;;;;;14.57;9.05;;;0.40;99.90;;;;;;7374008;19;20382;-72
2024/01/21 01:28:53;;;;;;;17.08;10.15;;;0.40;99.90;;;;;;7373303;19;20026;-72
2024/01/21 01:31:20;;;;;;;14.57;9.48;;;0.40;99.90;;;;;;7375195;19;20067;-72
2024/01/21 01:33:47;;;;;;;14.68;9.50;;;0.40;99.90;;;;;;7377292;19;20014;-72
2024/01/21 01:36:13;;;;;;;13.77;9.63;;;0.40;99.90;;;;;;7380467;19;20019;-72
2024/01/21 01:38:40;;;;;;;15.82;9.73;;;0.40;99.90;;;;;;7377006;19;20022;-72
2024/01/21 01:41:06;;;;;;;13.18;8.35;;;0.40;99.90;;;;;;7372212;19;20022;-72
2024/01/21 01:43:32;;;;;;;12.05;8.70;;;0.40;99.90;;;;;;7378393;19;20774;-72
2024/01/21 01:46:00;;;;;;;12.98;7.78;;;0.40;99.90;;;;;;7375334;19;20498;-64
2024/01/21 01:48:28;;;;;;;12.80;8.77;;;0.50;99.90;;;;;;7377150;19;20085;-65
2024/01/21 01:50:58;;;;;;;14.48;7.53;;;0.40;99.90;;;;;;7375397;19;20095;-64
2024/01/21 01:53:26;;;;;;;10.30;7.35;;;0.50;99.90;;;;;;7376728;19;20781;-64
2024/01/21 01:55:53;;;;;;;13.90;7.70;;;0.40;99.90;;;;;;7376835;19;20114;-64
2024/01/21 01:58:23;;;;;;;12.13;7.85;;;0.50;99.90;;;;;;7375450;19;20391;-64
2024/01/21 02:00:52;;;;;;;15.07;8.43;;;0.50;99.90;;;;;;7365795;19;20086;-73
2024/01/21 02:03:21;;;;;;;10.13;6.57;;;0.60;99.90;;;;;;7376681;19;20022;-73
2024/01/21 02:05:47;;;;;;;11.85;7.57;;;0.70;99.90;;;;;;7375757;19;20356;-73
2024/01/21 02:08:14;;;;;;;9.68;6.70;;;0.60;99.90;;;;;;7375813;19;20022;-64
2024/01/21 02:10:40;;;;;;;9.13;5.78;;;0.80;99.90;;;;;;7373969;19;20058;-64
2024/01/21 02:13:06;;;;;;;9.68;6.00;;;0.70;99.90;;;;;;7375076;19;20018;-64
2024/01/21 02:15:32;;;;;;;11.50;6.88;;;0.70;99.90;;;;;;7371803;19;20105;-64
2024/01/21 02:17:58;;;;;;;11.20;6.40;;;0.70;99.90;;;;;;7372884;19;20590;-64
2024/01/21 02:20:25;;;;;;;10.00;6.05;;;0.70;99.90;;;;;;7378939;19;20051;-73
2024/01/21 02:22:55;;;;;;;8.23;5.85;;;0.70;99.90;;;;;;7372634;19;20026;-72
2024/01/21 02:25:21;;;;;;;12.77;5.90;;;0.80;99.90;;;;;;7371668;19;20018;-73
2024/01/21 02:27:48;;;;;;;9.32;5.28;;;0.80;99.90;;;;;;7371443;19;20014;-63
2024/01/21 02:30:14;;;;;;;9.25;5.82;;;0.90;99.90;;;;;;7373386;19;20022;-63
2024/01/21 02:32:40;;;;;;;9.60;4.93;;;0.90;99.90;;;;;;7368839;19;20486;-63
2024/01/21 02:35:06;;;;;;;7.72;4.50;;;0.90;99.90;;;;;;7374571;19;20018;-63
2024/01/21 02:37:33;;;;;;;8.07;4.95;;;0.90;99.90;;;;;;7376032;19;20082;-63
2024/01/21 02:39:59;;;;;;;7.20;4.55;;;0.90;99.90;;;;;;7372828;19;20018;-63
2024/01/21 02:42:26;;;;;;;7.13;4.53;;;0.90;99.90;;;;;;7374115;19;20026;-73
2024/01/21 02:44:54;;;;;;;8.10;4.57;;;0.90;99.90;;;;;;7374820;19;20110;-72
2024/01/21 02:47:20;;;;;;;7.93;4.88;;;1.00;99.90;;;;;;7375354;19;20031;-72
2024/01/21 02:49:46;;;;;;;6.18;3.80;;;1.00;99.90;;;;;;7375092;19;20482;-72
2024/01/21 02:52:12;;;;;;;10.35;4.53;;;1.00;99.90;;;;;;7373601;19;20022;-72
2024/01/21 02:54:38;;;;;;;9.15;4.63;;;1.00;99.90;;;;;;7373613;19;20390;-73
2024/01/21 02:57:05;;;;;;;8.20;4.60;;;1.10;99.90;;;;;;7375714;19;20019;-73
2024/01/21 02:59:31;;;;;;;8.73;4.15;;;1.00;99.90;;;;;;7374638;19;20570;-63
2024/01/21 03:01:57;;;;;;;9.02;4.93;;;1.10;99.90;;;;;;7373717;19;20035;-63
2024/01/21 03:04:24;;;;;;;7.10;4.32;;;1.10;99.90;;;;;;7373871;19;20945;-63
2024/01/21 03:06:52;;;;;;;5.32;3.75;;;1.10;99.90;;;;;;7370726;19;20033;-63
2024/01/21 03:09:19;;;;;;;8.93;4.20;;;1.10;99.90;;;;;;7361470;19;20430;-74
2024/01/21 03:11:46;;;;;;;7.82;3.83;;;1.00;99.90;;;;;;7371303;19;20113;-72
2024/01/21 03:14:14;;;;;;;6.80;3.20;;;1.10;99.90;;;;;;7376332;19;20028;-72
2024/01/21 03:16:43;;;;;;;6.95;3.42;;;1.10;99.90;;;;;;7373539;19;20488;-73
2024/01/21 03:19:09;;;;;;;5.82;3.53;;;1.10;99.90;;;;;;7373872;19;20023;-72
2024/01/21 03:21:35;;;;;;;6.95;3.78;;;1.20;99.90;;;;;;7374753;19;20050;-73
2024/01/21 03:24:01;;;;;;;5.93;3.35;;;1.20;99.90;;;;;;7371853;19;20014;-73
2024/01/21 03:26:28;;;;;;;5.10;3.65;;;1.20;99.90;;;;;;7375294;19;20021;-73
2024/01/21 03:28:54;;;;;;;5.47;3.30;;;1.30;99.90;;;;;;7374421;19;20029;-73
2024/01/21 03:31:20;;;;;;;6.00;3.28;;;1.20;99.90;;;;;;7373744;19;20018;-73
2024/01/21 03:33:46;;;;;;;8.23;3.13;;;1.30;99.90;;;;;;7371991;19;20483;-73
2024/01/21 03:36:13;;;;;;;4.57;2.53;;;1.30;99.90;;;;;;7371732;19;20026;-72
2024/01/21 03:38:39;;;;;;;6.18;2.75;;;1.40;99.90;;;;;;7374416;19;20033;-72
2024/01/21 03:41:05;;;;;;;4.82;2.88;;;1.40;98.20;;;;;;7372410;19;20035;-64
2024/01/21 03:43:32;;;;;;;7.40;3.05;;;1.40;96.10;;;;;;7369141;19;20055;-64
2024/01/21 03:45:58;;;;;;;5.80;3.17;;;1.40;98.00;;;;;;7371861;19;20023;-64
2024/01/21 03:48:24;;;;;;;4.32;2.58;;;1.40;98.20;;;;;;7368946;19;20026;-64
2024/01/21 03:50:50;;;;;;;4.63;3.10;;;1.40;95.60;;;;;;7373281;19;20070;-64
2024/01/21 03:53:16;;;;;;;4.13;2.65;;;1.40;97.10;;;;;;7372633;19;20030;-73
2024/01/21 03:55:42;;;;;;;6.25;2.40;;;1.40;94.90;;;;;;7373398;19;20038;-63
2024/01/21 03:58:08;;;;;;;4.68;2.80;;;1.40;95.40;;;;;;7369066;19;20022;-64
2024/01/21 04:00:34;;;;;;;4.53;2.50;;;1.40;95.10;;;;;;7372019;19;20022;-64
2024/01/21 04:03:01;;;;;;;4.55;2.78;;;1.30;94.60;;;;;;7367718;19;20022;-64
2024/01/21 04:05:27;;;;;;;5.85;2.15;;;1.30;94.20;;;;;;7366838;19;20022;-72
2024/01/21 04:07:53;;;;;;;4.85;2.22;;;1.40;94.30;;;;;;7371221;19;20022;-72
2024/01/21 04:10:19;;;;;;;4.13;2.10;;;1.40;91.80;;;;;;7374808;19;20035;-72
2024/01/21 04:12:45;;;;;;;3.53;2.42;;;1.40;91.40;;;;;;7372535;19;20039;-72
2024/01/21 04:15:11;;;;;;;5.28;2.50;;;1.50;91.90;;;;;;7371538;19;20666;-72
2024/01/21 04:17:38;;;;;;;4.00;2.22;;;1.40;92.10;;;;;;7370327;19;20345;-72
2024/01/21 04:20:10;;;;;;;5.38;2.40;;;1.40;91.90;;;;;;7369474;19;20053;-63
2024/01/21 04:22:37;;;;;;;3.47;2.28;;;1.40;90.40;;;;;;7370857;19;20113;-64
2024/01/21 04:25:05;;;;;;;5.30;2.92;;;1.40;90.70;;;;;;7372460;19;20022;-63
2024/01/21 04:27:32;;;;;;;5.10;2.08;;;1.40;91.40;;;;;;7377479;19;20029;-64
2024/01/21 04:29:59;;;;;;;5.32;2.22;;;1.40;90.60;;;;;;7376067;19;20022;-72
2024/01/21 04:32:26;;;;;;;3.47;2.10;;;1.40;90.60;;;;;;7378593;19;20022;-72
2024/01/21 04:34:53;;;;;;;5.22;2.53;;;1.30;91.80;;;;;;7371800;19;20480;-72
2024/01/21 04:37:20;;;;;;;4.78;2.25;;;1.30;91.90;;;;;;7375757;19;20098;-64
2024/01/21 04:39:46;;;;;;;4.30;2.55;;;1.20;92.40;;;;;;7377079;19;22534;-63
2024/01/21 04:42:12;;;;;;;3.83;1.90;;;1.20;92.30;;;;;;7375888;19;20018;-64
2024/01/21 04:44:38;;;;;;;4.45;2.30;;;1.20;91.30;;;;;;7373683;19;20640;-71
2024/01/21 04:47:05;;;;;;;3.70;2.40;;;1.20;92.20;;;;;;7374472;19;20468;-71
2024/01/21 04:49:31;;;;;;;5.22;2.03;;;1.20;92.30;;;;;;7378115;19;20010;-72
2024/01/21 04:51:57;;;;;;;4.57;2.30;;;1.30;89.90;;;;;;7375544;19;20074;-63
2024/01/21 04:54:23;;;;;;;4.00;2.40;;;1.30;90.60;;;;;;7375044;19;20114;-72
2024/01/21 04:56:50;;;;;;;4.60;2.28;;;1.30;90.10;;;;;;7376296;19;20014;-63
2024/01/21 04:59:16;;;;;;;4.32;2.20;;;1.30;90.20;;;;;;7371151;19;20094;-64
2024/01/21 05:01:42;;;;;;;3.78;2.28;;;1.30;90.40;;;;;;7373794;19;20022;-64
2024/01/21 05:04:11;;;;;;;4.85;2.72;;;1.30;90.20;;;;;;7370753;19;20019;-63
2024/01/21 05:06:37;;;;;;;6.45;2.70;;;1.30;90.00;;;;;;7372678;19;20056;-63
2024/01/21 05:09:03;;;;;;;4.85;2.47;;;1.30;90.20;;;;;;7373722;19;20558;-63
2024/01/21 05:11:34;;;;;;;9.85;3.25;;;1.30;90.00;;;;;;7376537;19;20015;-71
2024/01/21 05:14:01;;;;;;;5.88;2.42;;;1.30;90.30;;;;;;7374289;19;20097;-71
2024/01/21 05:16:27;;;;;;;4.75;2.58;;;1.30;90.00;;;;;;7379129;19;20026;-63
2024/01/21 05:18:53;;;;;;;5.22;2.65;;;1.20;89.40;;;;;;7370655;19;20090;-63
2024/01/21 05:21:20;;;;;;;3.88;2.25;;;1.20;89.40;;;;;;7374423;19;20033;-63
2024/01/21 05:23:51;;;;;;;4.95;2.78;;;1.20;90.10;;;;;;7370922;19;20896;-63
2024/01/21 05:26:18;;;;;;;5.37;2.83;;;1.30;89.60;;;;;;7371696;19;20018;-62
2024/01/21 05:28:45;;;;;;;5.70;2.97;;;1.20;90.20;;;;;;7377449;19;20885;-63
2024/01/21 05:31:11;;;;;;;5.65;2.75;;;1.20;90.10;;;;;;7373511;19;20021;-63
2024/01/21 05:33:40;;;;;;;6.07;3.10;;;1.20;90.40;;;;;;7374176;19;20475;-63
2024/01/21 05:36:07;;;;;;;4.38;2.83;;;1.20;90.90;;;;;;7374750;19;20015;-63
2024/01/21 05:38:33;;;;;;;5.03;2.90;;;1.30;90.00;;;;;;7374443;19;20074;-63
2024/01/21 05:41:00;;;;;;;4.63;2.80;;;1.30;90.20;;;;;;7372692;19;20022;-63
2024/01/21 05:43:27;;;;;;;6.47;3.35;;;1.30;90.50;;;;;;7369999;19;20513;-63
2024/01/21 05:45:57;;;;;;;7.18;3.33;;;1.30;90.40;;;;;;7374679;19;20026;-71
2024/01/21 05:48:24;;;;;;;5.72;3.08;;;1.30;90.30;;;;;;7371784;19;20093;-72
2024/01/21 05:50:51;;;;;;;6.90;3.80;;;1.40;90.80;;;;;;7372380;19;20022;-71
2024/01/21 05:53:18;;;;;;;5.05;3.00;;;1.30;91.80;;;;;;7365236;19;20022;-72
2024/01/21 05:55:45;;;;;;;5.32;3.00;;;1.40;90.80;;;;;;7374185;19;20039;-72
2024/01/21 05:58:15;;;;;;;5.88;2.97;;;1.50;90.90;;;;;;7371158;19;20010;-73
2024/01/21 06:00:42;;;;;;;7.20;3.60;;;1.50;90.60;;;;;;7375527;19;21044;-72
2024/01/21 06:03:09;;;;;;;6.47;3.67;;;1.50;90.60;;;;;;7373265;19;20014;-72
2024/01/21 06:05:36;;;;;;;8.02;3.92;;;1.60;91.10;;;;;;7369631;19;20018;-63
2024/01/21 06:08:03;;;;;;;5.75;3.60;;;1.70;92.00;;;;;;7369641;19;20052;-73
2024/01/21 06:10:30;;;;;;;8.20;3.80;;;1.70;91.30;;;;;;7373632;19;20644;-72
2024/01/21 06:12:57;;;;;;;4.78;2.97;;;1.70;90.50;;;;;;7374488;19;20028;-63
2024/01/21 06:15:24;;;;;;;6.22;3.80;;;1.80;90.30;;;;;;7365756;19;20021;-63
2024/01/21 06:17:51;;;;;;;7.97;4.25;;;1.80;90.90;;;;;;7370618;19;20026;-63
2024/01/21 06:20:17;;;;;;;8.27;4.45;;;1.90;90.10;;;;;;7369920;19;20041;-63
2024/01/21 06:22:43;;;;;;;8.80;4.22;;;1.80;90.70;;;;;;7373197;19;20037;-64
2024/01/21 06:25:11;;;;;;;7.03;4.30;;;1.90;90.40;;;;;;7367868;19;20099;-63
2024/01/21 06:27:38;;;;;;;7.97;4.53;;;1.90;90.30;;;;;;7367353;19;20747;-63
2024/01/21 06:30:14;;;;;;;7.35;4.53;;;1.90;90.40;;;;;;7369079;19;20018;-72
2024/01/21 06:32:41;;;;;;;8.13;5.15;;;1.90;90.60;;;;;;7371374;19;20121;-72
2024/01/21 06:35:07;;;;;;;8.90;4.78;;;2.00;90.70;;;;;;7363268;19;20074;-71
2024/01/21 06:37:33;;;;;;;7.15;4.47;;;2.00;90.00;;;;;;7368672;19;20346;-72
2024/01/21 06:40:00;;;;;;;7.47;4.80;;;2.00;91.10;;;;;;7367313;19;20030;-73
2024/01/21 06:42:27;;;;;;;6.93;4.70;;;2.00;90.80;;;;;;7370149;19;20015;-63
2024/01/21 06:44:53;;;;;;;8.00;5.32;;;1.90;91.30;;;;;;7368507;19;20365;-64
2024/01/21 06:47:19;;;;;;;8.35;5.32;;;1.90;91.60;;;;;;7368400;19;20022;-64
2024/01/21 06:49:45;;;;;;;8.43;5.15;;;2.00;91.00;;;;;;7372243;19;20015;-64
2024/01/21 06:52:12;;;;;;;7.55;4.55;;;2.00;90.70;;;;;;7362514;19;20050;-71
2024/01/21 06:54:40;;;;;;;9.23;5.60;;;2.00;91.20;;;;;;7362565;19;20662;-72
2024/01/21 06:57:07;;;;;;;6.80;4.47;;;1.90;91.90;;;;;;7363038;19;20022;-72
2024/01/21 06:59:36;;;;;;;8.73;5.22;;;1.90;91.10;;;;;;7362029;19;20038;-64
2024/01/21 07:02:02;;;;;;;7.80;5.25;;;2.00;91.50;;;;;;7361556;19;20030;-65
2024/01/21 07:04:29;;;;;;;9.75;5.70;;;2.00;91.30;;;;;;7357877;19;20109;-64
2024/01/21 07:06:55;;;;;;;9.65;5.80;;;2.00;92.10;;;;;;7360793;19;20117;-64
2024/01/21 07:09:21;;;;;;;10.40;6.38;;;2.00;91.80;;;;;;7371902;19;20022;-62
2024/01/21 07:11:47;;;;;;;8.00;5.57;;;2.00;92.90;;;;;;7371485;19;20027;-72
2024/01/21 07:14:14;;;;;;;11.25;5.80;;;2.00;92.30;;;;;;7366730;19;20130;-72
2024/01/21 07:16:41;;;;;;;10.02;6.15;;;2.00;92.20;;;;;;7374883;19;20029;-73
2024/01/21 07:19:08;;;;;;;8.60;5.75;;;2.00;92.70;;;;;;7370004;19;20035;-73
2024/01/21 07:21:35;;;;;;;12.32;6.45;;;1.90;93.60;;;;;;7371247;19;20024;-64
2024/01/21 07:24:02;;;;;;;10.27;6.28;;;1.90;92.90;;;;;;7368355;19;20070;-64
2024/01/21 07:26:29;;;;;;;10.23;6.15;;;1.90;93.20;;;;;;7369759;19;20097;-64
2024/01/21 07:28:56;;;;;;;9.90;5.90;;;1.90;93.40;;;;;;7366747;19;20084;-64
2024/01/21 07:31:23;;;;;;;9.77;6.03;;;1.90;94.00;;;;;;7371560;19;20035;-65
2024/01/21 07:33:50;;;;;;;9.48;5.65;;;1.90;94.60;;;;;;7371117;19;20641;-64
2024/01/21 07:36:17;;;;;;;9.65;5.97;;;1.90;94.80;;;;;;7367224;19;20025;-65
2024/01/21 07:38:44;;;;;;;8.10;5.82;;;1.90;96.30;;;;;;7369411;19;20430;-64
2024/01/21 07:41:11;;;;;;;9.45;6.07;;;1.90;95.50;;;;;;7370019;19;20029;-64
2024/01/21 07:43:38;;;;;;;10.13;5.63;;;1.80;96.80;;;;;;7360667;19;20517;-65
2024/01/21 07:46:05;;;;;;;11.10;6.18;;;1.90;96.80;;;;;;7361012;19;21239;-64
2024/01/21 07:48:31;;;;;;;9.23;5.40;;;1.80;99.30;;;;;;7359765;19;20022;-72
2024/01/21 07:50:57;;;;;;;9.20;6.15;;;1.80;98.70;;;;;;7366933;19;20606;-71
2024/01/21 07:53:25;;;;;;;10.77;6.68;;;1.80;99.90;;;;;;7373379;19;20121;-72
2024/01/21 07:55:53;;;;;;;8.73;6.22;;;1.80;99.90;;;;;;7368526;19;20014;-65
2024/01/21 07:58:20;;;;;;;8.02;6.10;;;1.80;99.90;;;;;;7370836;19;20014;-65
2024/01/21 08:00:46;;;;;;;9.77;6.80;;;1.80;99.90;;;;;;7365597;19;20063;-64
2024/01/21 08:03:12;;;;;;;9.45;6.57;;;1.80;99.90;;;;;;7368107;19;20559;-65
2024/01/21 08:05:38;;;;;;;9.38;6.25;;;1.80;99.90;;;;;;7370468;19;20021;-65
2024/01/21 08:08:05;;;;;;;10.05;6.25;;;1.80;99.90;;;;;;7367968;19;20021;-64
2024/01/21 08:10:32;;;;;;;8.60;5.85;;;1.90;99.90;;;;;;7364137;19;20026;-72
2024/01/21 08:12:58;;;;;;;11.60;6.88;;;1.90;99.90;;;;;;7365337;19;20078;-73
2024/01/21 08:15:24;;;;;;;9.65;6.25;;;2.00;99.90;;;;;;7359798;19;20442;-73
2024/01/21 08:17:51;;;;;;;8.02;5.60;;;1.90;99.90;;;;;;7363345;19;20023;-63
2024/01/21 08:20:17;;;;;;;9.30;6.00;;;1.90;99.90;;;;;;7367256;19;20026;-64
2024/01/21 08:22:44;;;;;;;10.15;6.97;;;1.90;99.90;;;;;;7367295;19;20018;-74
2024/01/21 08:25:10;;;;;;;9.55;6.00;;;2.00;99.90;;;;;;7368577;19;20025;-64
2024/01/21 08:27:36;;;;;;;9.60;6.28;;;2.00;99.90;;;;;;7365003;19;20026;-64
2024/01/21 08:30:05;;;;;;;9.10;6.47;;;2.10;99.90;;;;;;7367640;19;20022;-64
2024/01/21 08:32:31;;;;;;;8.23;6.05;;;2.10;99.90;;;;;;7365044;19;20050;-64
2024/01/21 08:34:58;;;;;;;9.40;6.38;;;2.20;99.90;;;;;;7365563;19;20530;-73
2024/01/21 08:37:24;;;;;;;8.32;6.13;;;2.20;99.90;;;;;;7371750;19;20483;-73
2024/01/21 08:39:50;;;;;;;12.40;6.68;;;2.20;99.90;;;;;;7366777;19;20022;-73
2024/01/21 08:42:19;;;;;;;9.00;7.10;;;2.20;99.90;;;;;;7368203;19;20027;-73
2024/01/21 08:44:45;;;;;;;9.15;6.53;;;2.30;99.90;;;;;;7366874;19;20488;-73
2024/01/21 08:47:12;;;;;;;8.60;6.07;;;2.20;99.90;;;;;;7366428;19;20081;-64
2024/01/21 08:49:39;;;;;;;9.85;6.25;;;2.20;99.90;;;;;;7369421;19;20022;-72
2024/01/21 08:52:06;;;;;;;10.00;6.43;;;2.10;99.90;;;;;;7369788;19;20432;-72
2024/01/21 08:54:33;;;;;;;9.38;6.85;;;2.20;99.90;;;;;;7374994;19;20506;-64
2024/01/21 08:57:00;;;;;;;10.82;6.47;;;2.20;99.90;;;;;;7368209;19;20086;-64
2024/01/21 08:59:27;;;;;;;9.50;6.25;;;2.20;99.90;;;;;;7369347;19;20026;-66
2024/01/21 09:01:54;;;;;;;9.43;6.40;;;2.30;99.90;;;;;;7369256;19;20014;-66
2024/01/21 09:04:22;;;;;;;9.77;6.43;;;2.40;99.90;;;;;;7370653;19;20526;-74
2024/01/21 09:06:49;;;;;;;10.05;6.72;;;2.50;99.90;;;;;;7365928;19;20045;-74
2024/01/21 09:09:16;;;;;;;9.32;6.97;;;2.50;99.90;;;;;;7373831;19;20614;-74
2024/01/21 09:11:47;;;;;;;8.32;6.25;;;2.60;99.90;;;;;;7381269;19;20025;-74
2024/01/21 09:14:14;;;;;;;13.63;6.95;;;2.60;99.90;;;;;;7379285;19;20413;-66
2024/01/21 09:16:41;;;;;;;10.65;6.22;;;2.60;99.90;;;;;;7373476;19;20105;-67
2024/01/21 09:19:09;;;;;;;9.05;6.72;;;2.60;99.90;;;;;;7376568;19;20018;-67
2024/01/21 09:21:36;;;;;;;12.50;7.13;;;2.70;99.90;;;;;;7376084;19;20082;-67
2024/01/21 09:24:04;;;;;;;13.77;6.78;;;2.70;99.90;;;;;;7377162;19;20035;-74
2024/01/21 09:26:31;;;;;;;8.93;6.05;;;2.70;99.90;;;;;;7376148;19;20501;-74
2024/01/21 09:28:58;;;;;;;10.95;6.47;;;2.70;99.90;;;;;;7378051;19;20082;-67
2024/01/21 09:31:25;;;;;;;9.55;6.53;;;2.60;99.90;;;;;;7373677;19;20026;-68
2024/01/21 09:33:52;;;;;;;8.88;6.35;;;2.60;99.90;;;;;;7376347;19;20094;-67
2024/01/21 09:36:19;;;;;;;9.95;6.65;;;2.60;99.90;;;;;;7366429;19;20070;-74
2024/01/21 09:38:46;;;;;;;10.48;7.20;;;2.70;99.90;;;;;;7376210;19;20014;-76
2024/01/21 09:41:17;;;;;;;9.35;6.22;;;2.80;99.90;;;;;;7373464;19;20078;-76
2024/01/21 09:43:46;;;;;;;11.05;7.10;;;2.80;99.90;;;;;;7375005;19;20072;-76
2024/01/21 09:46:13;;;;;;;8.95;6.20;;;2.80;99.90;;;;;;7369808;19;20029;-76
2024/01/21 09:48:39;;;;;;;11.13;7.15;;;2.80;99.90;;;;;;7373165;19;20032;-64
2024/01/21 09:51:06;;;;;;;11.45;7.63;;;2.90;99.90;;;;;;7372330;19;20495;-65
2024/01/21 09:53:33;;;;;;;9.32;6.75;;;3.00;99.90;;;;;;7374361;19;20014;-64
2024/01/21 09:56:06;;;;;;;10.60;7.35;;;3.00;99.90;;;;;;7370715;19;20368;-67
2024/01/21 09:58:38;;;;;;;9.25;7.22;;;3.00;99.90;;;;;;7375375;19;20023;-64
2024/01/21 10:01:05;;;;;;;10.43;7.57;;;3.10;99.90;;;;;;7375243;19;20910;-65
2024/01/21 10:03:31;;;;;;;10.68;6.40;;;3.10;99.90;;;;;;7373685;19;20034;-64
2024/01/21 10:05:58;;;;;;;10.93;7.03;;;3.10;99.90;;;;;;7373761;19;20014;-66
2024/01/21 10:08:24;;;;;;;10.90;7.25;;;3.10;99.90;;;;;;7372314;19;20660;-65
2024/01/21 10:10:51;;;;;;;9.13;6.28;;;3.10;99.90;;;;;;7373232;19;20026;-65
2024/01/21 10:13:19;;;;;;;9.85;6.72;;;3.20;99.90;;;;;;7376002;19;20011;-73
2024/01/21 10:15:45;;;;;;;9.43;6.20;;;3.20;99.90;;;;;;7376384;19;20345;-73
2024/01/21 10:18:12;;;;;;;9.45;6.43;;;3.30;99.90;;;;;;7375314;19;20014;-65
2024/01/21 10:20:38;;;;;;;12.57;6.90;;;3.20;99.90;;;;;;7371915;19;20034;-65
2024/01/21 10:23:11;;;;;;;9.80;6.47;;;3.30;99.90;;;;;;7373788;19;20022;-66
2024/01/21 10:25:43;;;;;;;10.02;7.18;;;3.30;99.90;;;;;;7375987;19;20018;-65
2024/01/21 10:28:12;;;;;;;11.30;6.70;;;3.40;99.90;;;;;;7369495;19;20026;-65
2024/01/21 10:30:41;;;;;;;9.38;6.80;;;3.40;99.90;;;;;;7374396;19;20273;-65
2024/01/21 10:33:07;;;;;;;9.50;7.07;;;3.40;99.90;;;;;;7372584;19;20018;-65
2024/01/21 10:35:33;;;;;;;11.50;7.20;;;3.40;99.90;;;;;;7373190;19;20385;-65
2024/01/21 10:38:05;;;;;;;10.00;6.47;;;3.50;99.90;;;;;;7369509;19;20030;-72
2024/01/21 10:40:32;;;;;;;11.23;6.57;;;3.50;99.90;;;;;;7375395;19;20015;-73
2024/01/21 10:43:00;;;;;;;11.15;7.45;;;3.60;99.90;;;;;;7373906;19;20084;-67
2024/01/21 10:45:32;;;;;;;9.25;6.80;;;3.60;99.90;;;;;;7375258;19;20019;-66
2024/01/21 10:48:01;;;;;;;9.60;7.20;;;3.70;99.90;;;;;;7371857;19;20026;-68
2024/01/21 10:50:28;;;;;;;8.88;6.68;;;3.70;99.90;;;;;;7376900;19;20074;-67
2024/01/21 10:52:55;;;;;;;11.13;7.10;;;3.70;99.90;;;;;;7376434;19;20094;-66
2024/01/21 10:55:23;;;;;;;10.90;6.85;;;3.80;99.90;;;;;;7377997;19;20106;-68
2024/01/21 10:57:52;;;;;;;8.60;6.53;;;3.70;99.90;;;;;;7373626;19;20018;-72
2024/01/21 11:00:19;;;;;;;10.07;7.28;;;3.70;99.90;;;;;;7373938;19;20094;-66
2024/01/21 11:03:25;;;;;;;10.05;7.43;;;3.70;99.90;;;;;;7372938;19;20022;-67
2024/01/21 11:05:57;;;;;;;10.50;7.30;;;3.70;99.90;;;;;;7373678;19;20071;-67
2024/01/21 11:08:25;;;;;;;;;;;3.80;99.90;;;;;;7372595;19;20022;-69
2024/01/21 11:11:02;;;;;;;9.50;6.43;;;3.80;99.90;;;;;;7372492;19;20005;-67
2024/01/21 11:13:40;;;;;;;8.50;6.60;;;3.80;99.90;;;;;;7372552;19;20019;-68
2024/01/21 11:16:07;;;;;;;9.15;6.45;;;3.90;99.90;;;;;;7371423;19;20547;-67
2024/01/21 11:18:34;;;;;;;9.27;6.65;;;3.90;99.90;;;;;;7373760;19;20014;-67
2024/01/21 11:21:01;;;;;;;11.77;7.40;;;3.90;99.90;;;;;;7363695;19;20834;-67
2024/01/21 11:23:28;;;;;;;10.23;6.65;;;4.00;99.90;;;;;;7367054;19;20454;-67
2024/01/21 11:25:54;;;;;;;11.73;7.18;;;4.00;99.90;;;;;;7369382;19;20736;-65
2024/01/21 11:28:31;;;;;;;9.73;6.85;;;4.00;99.90;;;;;;7365619;19;20130;-67
2024/01/21 11:31:01;;;;;;;8.57;7.05;;;4.00;99.90;;;;;;7368076;19;20094;-65
2024/01/21 11:33:29;;;;;;;10.23;7.05;;;4.00;99.90;;;;;;7367311;19;20029;-65
2024/01/21 11:35:58;;;;;;;12.23;7.38;;;4.00;99.90;;;;;;7365909;19;22619;-66
2024/01/21 11:38:26;;;;;;;12.07;7.60;;;4.00;99.90;;;;;;7368214;19;20046;-66
2024/01/21 11:41:03;;;;;;;10.23;7.32;;;4.00;99.90;;;;;;7370845;19;20715;-66
2024/01/21 11:43:34;;;;;;;11.63;7.78;;;4.00;99.90;;;;;;7369350;19;20019;-66
2024/01/21 11:46:03;;;;;;;10.20;7.15;;;4.00;99.90;;;;;;7367497;19;20792;-66
2024/01/21 11:48:30;;;;;;;10.60;7.45;;;4.00;99.90;;;;;;7360583;19;20467;-72
2024/01/21 11:50:57;;;;;;;11.55;8.10;;;3.90;99.90;;;;;;7361811;19;20029;-70
2024/01/21 11:53:24;;;;;;;9.77;7.45;;;3.90;99.90;;;;;;7363585;19;20602;-73
2024/01/21 11:55:51;;;;;;;10.43;7.43;;;3.90;99.90;;;;;;7364887;19;20074;-67
2024/01/21 11:58:18;;;;;;;10.90;7.47;;;3.90;99.90;;;;;;7363123;19;20042;-66
2024/01/21 12:00:45;;;;;;;11.18;7.63;;;3.90;99.90;;;;;;7367998;19;20018;-66
2024/01/21 12:03:11;;;;;;;10.70;7.30;;;3.90;99.90;;;;;;7365569;19;20030;-72
2024/01/21 12:05:39;;;;;;;10.73;7.75;;;3.90;99.90;;;;;;7367720;19;20022;-72
2024/01/21 12:08:07;;;;;;;11.48;8.40;;;3.90;99.90;;;;;;7363555;19;20022;-72
2024/01/21 12:10:34;;;;;;;11.38;8.35;;;3.90;99.90;;;;;;7368370;19;20387;-66
2024/01/21 12:13:00;;;;;;;11.75;8.20;;;3.90;99.90;;;;;;7367981;19;20644;-66
2024/01/21 12:15:33;;;;;;;11.43;8.25;;;3.90;99.90;;;;;;7368401;19;20404;-66
2024/01/21 12:18:00;;;;;;;10.57;8.38;;;3.90;99.90;;;;;;7368195;19;20044;-66
2024/01/21 12:20:27;;;;;;;10.07;8.13;;;4.00;99.90;;;;;;7371428;19;20019;-66
2024/01/21 12:22:55;;;;;;;11.00;7.82;;;4.00;99.90;;;;;;7371666;19;20022;-67
2024/01/21 12:25:24;;;;;;;10.68;7.88;;;4.00;99.90;;;;;;7366580;19;20022;-66
2024/01/21 12:28:03;;;;;;;11.35;7.90;;;4.00;99.90;;;;;;7367224;19;20026;-66
2024/01/21 12:30:30;;;;;;;12.13;8.10;;;4.00;99.90;;;;;;7367168;19;20015;-66
2024/01/21 12:32:57;;;;;;;10.15;7.75;;;4.10;99.90;;;;;;7370717;19;20766;-64
2024/01/21 12:35:24;;;;;;;10.30;7.70;;;4.10;99.90;;;;;;7363975;19;20027;-64
2024/01/21 12:37:52;;;;;;;12.15;8.20;;;4.00;99.90;;;;;;7366756;19;20596;-65
2024/01/21 12:40:19;;;;;;;11.25;7.82;;;4.10;99.90;;;;;;7362038;19;20025;-61
2024/01/21 12:42:46;;;;;;;12.15;7.60;;;4.10;99.90;;;;;;7362952;19;20560;-71
2024/01/21 12:45:13;;;;;;;11.05;8.20;;;4.10;99.90;;;;;;7366661;19;20029;-71
2024/01/21 12:47:40;;;;;;;12.75;8.30;;;4.10;99.90;;;;;;7371208;19;20263;-71
2024/01/21 12:50:09;;;;;;;12.07;8.40;;;4.10;99.90;;;;;;7375427;19;20088;-72
2024/01/21 12:52:37;;;;;;;11.52;8.85;;;4.10;99.90;;;;;;7374841;19;20019;-72